Walker Springs, Alabama
Current Conditions -  °F | °C
As of 12:53 PM on Friday 24 Oct 2014 (Local Time) from KGZH Reporting Station
Clear Clear  
Wind Chill: 76°   Ceiling: Unl
Heat Index: 76°   Visibility: 10mi
Dew Point: 41°   Wind: 7mph
Humidity: 29%   Direction: 320°NW
Pressure: 30.04"   Gusts: NA
Location:  31.54°N, 87.79°W
Report Text: KGZH 241753Z AUTO 32006KT 10SM CLR 24/05 A3004 RMK AO2 SLP170 T02440050 10244 20083 58019
Loading
Personal Weather Stations






























Interactive Weather Map
Tropical Storm Tracking
New forecast layout! Learn more

10-Day Weather Forecast

Advertisements
Track Severe Weather on mobile